createdAt,value
2023-02-07T00:01:16.729Z,75.98
2023-02-07T00:03:43.872Z,76.27
2023-02-07T00:06:13.982Z,76.00
2023-02-07T00:08:41.196Z,75.67
2023-02-07T00:11:12.770Z,76.17
2023-02-07T00:13:39.338Z,75.66
2023-02-07T00:16:06.850Z,76.17
2023-02-07T00:18:34.196Z,75.67
2023-02-07T00:21:03.529Z,75.20
2023-02-07T00:23:30.215Z,75.55
2023-02-07T00:25:56.919Z,76.12
2023-02-07T00:28:23.626Z,75.61
2023-02-07T00:30:50.168Z,76.03
2023-02-07T00:33:16.725Z,75.69
2023-02-07T00:35:43.449Z,75.44
2023-02-07T00:38:09.862Z,75.53
2023-02-07T00:40:36.303Z,76.23
2023-02-07T00:43:02.761Z,76.91
2023-02-07T00:45:29.113Z,76.51
2023-02-07T00:47:55.503Z,75.92
2023-02-07T00:50:21.869Z,76.04
2023-02-07T00:52:48.245Z,76.37
2023-02-07T00:55:14.594Z,75.80
2023-02-07T00:57:40.989Z,76.71
2023-02-07T01:00:08.144Z,76.22
2023-02-07T01:02:34.501Z,76.58
2023-02-07T01:05:01.006Z,76.24
2023-02-07T01:07:27.369Z,76.42
2023-02-07T01:09:53.709Z,76.50
2023-02-07T01:12:20.066Z,76.75
2023-02-07T01:14:46.398Z,76.86
2023-02-07T01:17:13.794Z,76.63
2023-02-07T01:19:40.196Z,77.22
2023-02-07T01:22:06.550Z,77.45
2023-02-07T01:24:35.142Z,76.80
2023-02-07T01:27:02.497Z,76.56
2023-02-07T01:29:28.850Z,76.66
2023-02-07T01:31:55.292Z,75.85
2023-02-07T01:34:21.669Z,76.42
2023-02-07T01:36:48.061Z,76.00
2023-02-07T01:39:14.522Z,76.12
2023-02-07T01:41:40.848Z,76.66
2023-02-07T01:44:28.770Z,75.66
2023-02-07T01:46:56.625Z,76.31
2023-02-07T01:49:27.102Z,76.06
2023-02-07T01:51:56.599Z,76.06
2023-02-07T01:54:23.467Z,76.46
2023-02-07T01:56:58.141Z,76.41
2023-02-07T01:59:25.281Z,75.72
2023-02-07T02:01:51.801Z,75.69
2023-02-07T02:04:18.279Z,75.42
2023-02-07T02:06:46.306Z,75.59
2023-02-07T02:09:15.117Z,75.79
2023-02-07T02:11:57.068Z,75.43
2023-02-07T02:14:48.392Z,76.62
2023-02-07T02:17:38.715Z,76.59
2023-02-07T02:20:29.708Z,76.53
2023-02-07T02:23:14.938Z,76.21
2023-02-07T02:25:55.545Z,76.13
2023-02-07T02:29:06.425Z,77.00
2023-02-07T02:32:03.413Z,76.42
2023-02-07T02:34:32.847Z,76.37
2023-02-07T02:37:22.461Z,75.92
2023-02-07T02:40:09.954Z,76.10
2023-02-07T02:43:05.112Z,76.24
2023-02-07T02:45:39.181Z,76.12
2023-02-07T02:48:09.584Z,75.65
2023-02-07T02:50:36.013Z,75.97
2023-02-07T02:53:02.708Z,76.17
2023-02-07T02:55:43.932Z,76.39
2023-02-07T02:58:39.828Z,75.64
2023-02-07T03:01:17.714Z,75.04
2023-02-07T03:03:55.478Z,75.06
2023-02-07T03:06:35.785Z,76.02
2023-02-07T03:09:17.425Z,75.50
2023-02-07T03:11:58.105Z,75.23
2023-02-07T03:14:42.715Z,75.32
2023-02-07T03:17:34.500Z,75.09
2023-02-07T03:20:14.596Z,75.62
2023-02-07T03:22:44.409Z,75.18
2023-02-07T03:25:14.905Z,75.50
2023-02-07T03:27:42.553Z,75.08
2023-02-07T03:30:12.517Z,75.38
2023-02-07T03:32:43.817Z,75.34
2023-02-07T03:35:15.978Z,75.40
2023-02-07T03:37:47.936Z,75.76
2023-02-07T03:40:15.058Z,75.41
2023-02-07T03:42:55.505Z,75.19
2023-02-07T03:45:23.005Z,75.36
2023-02-07T03:47:49.842Z,75.35
2023-02-07T03:50:17.574Z,75.71
2023-02-07T03:52:43.903Z,75.97
2023-02-07T03:55:10.409Z,75.59
2023-02-07T03:57:37.070Z,75.98
2023-02-07T04:00:05.656Z,75.83
2023-02-07T04:02:32.081Z,75.69
2023-02-07T04:04:58.432Z,75.59
2023-02-07T04:07:24.841Z,75.32
2023-02-07T04:09:51.285Z,75.88
2023-02-07T04:12:17.735Z,75.59
2023-02-07T04:14:44.193Z,76.19
2023-02-07T04:17:10.572Z,76.52
2023-02-07T04:19:36.927Z,76.47
2023-02-07T04:22:03.572Z,76.26
2023-02-07T04:24:32.090Z,76.77
2023-02-07T04:26:59.528Z,77.56
2023-02-07T04:29:26.663Z,78.05
2023-02-07T04:31:53.102Z,77.46
2023-02-07T04:34:19.557Z,77.77
2023-02-07T04:36:45.936Z,77.68
2023-02-07T04:39:12.332Z,77.58
2023-02-07T04:41:38.767Z,76.74
2023-02-07T04:44:05.265Z,78.04
2023-02-07T04:46:31.729Z,77.57
2023-02-07T04:48:58.189Z,77.34
2023-02-07T04:51:24.521Z,77.03
2023-02-07T04:53:50.933Z,76.82
2023-02-07T04:56:17.363Z,76.50
2023-02-07T04:58:43.772Z,77.00
2023-02-07T05:01:10.126Z,77.18
2023-02-07T05:03:36.436Z,76.55
2023-02-07T05:06:02.891Z,76.66
2023-02-07T05:08:29.245Z,76.33
2023-02-07T05:10:56.959Z,76.08
2023-02-07T05:13:24.129Z,76.81
2023-02-07T05:15:51.323Z,76.63
2023-02-07T05:18:18.124Z,76.87
2023-02-07T05:20:44.678Z,76.90
2023-02-07T05:23:11.119Z,76.86
2023-02-07T05:25:37.822Z,76.84
2023-02-07T05:28:04.578Z,76.78
2023-02-07T05:30:31.111Z,76.01
2023-02-07T05:33:03.789Z,76.17
2023-02-07T05:35:36.578Z,76.07
2023-02-07T05:38:07.461Z,76.30
2023-02-07T05:40:34.725Z,76.06
2023-02-07T05:43:01.085Z,76.23
2023-02-07T05:45:27.463Z,75.81
2023-02-07T05:47:53.834Z,76.06
2023-02-07T05:50:20.338Z,75.94
2023-02-07T05:52:46.722Z,75.72
2023-02-07T05:55:13.097Z,75.90
2023-02-07T05:57:41.846Z,75.22
2023-02-07T06:00:17.344Z,75.88
2023-02-07T06:02:44.451Z,75.52
2023-02-07T06:05:13.371Z,75.62
2023-02-07T06:07:39.823Z,75.76
2023-02-07T06:10:07.559Z,75.34
2023-02-07T06:12:34.569Z,75.03
2023-02-07T06:15:01.358Z,75.07
2023-02-07T06:17:27.966Z,75.31
2023-02-07T06:19:54.382Z,74.91
2023-02-07T06:22:20.772Z,75.04
2023-02-07T06:24:47.217Z,75.13
2023-02-07T06:27:13.539Z,75.32
2023-02-07T06:29:39.908Z,75.41
2023-02-07T06:32:06.354Z,75.58
2023-02-07T06:34:33.051Z,75.28
2023-02-07T06:36:59.427Z,75.72
2023-02-07T06:39:25.867Z,76.12
2023-02-07T06:41:52.234Z,75.96
2023-02-07T06:44:18.638Z,75.42
2023-02-07T06:46:45.045Z,75.52
2023-02-07T06:49:11.546Z,76.04
2023-02-07T06:51:37.929Z,75.80
2023-02-07T06:54:08.268Z,76.18
2023-02-07T06:56:34.658Z,76.08
2023-02-07T06:59:01.028Z,75.37
2023-02-07T07:01:27.753Z,74.85
2023-02-07T07:03:54.131Z,75.45
2023-02-07T07:06:20.519Z,75.66
2023-02-07T07:08:46.896Z,75.39
2023-02-07T07:11:13.326Z,75.81
2023-02-07T07:13:39.658Z,75.72
2023-02-07T07:16:06.284Z,75.33
2023-02-07T07:18:32.685Z,75.51
2023-02-07T07:20:59.072Z,76.03
2023-02-07T07:23:25.458Z,75.88
2023-02-07T07:25:52.651Z,75.81
2023-02-07T07:28:19.123Z,75.90
2023-02-07T07:30:45.529Z,75.88
2023-02-07T07:33:11.972Z,75.57
2023-02-07T07:35:38.719Z,75.69
2023-02-07T07:38:05.295Z,75.33
2023-02-07T07:40:31.737Z,75.89
2023-02-07T07:42:58.145Z,75.53
2023-02-07T07:45:24.728Z,75.68
2023-02-07T07:47:51.119Z,75.87
2023-02-07T07:50:17.485Z,75.54
2023-02-07T07:52:43.861Z,75.92
2023-02-07T07:55:10.534Z,75.78
2023-02-07T07:57:36.977Z,75.62
2023-02-07T08:00:04.735Z,75.95
2023-02-07T08:02:31.642Z,75.87
2023-02-07T08:04:58.050Z,75.92
2023-02-07T08:07:24.430Z,76.58
2023-02-07T08:09:50.754Z,76.74
2023-02-07T08:12:17.137Z,76.13
2023-02-07T08:14:43.576Z,76.93
2023-02-07T08:17:10.068Z,76.96
2023-02-07T08:19:38.220Z,76.60
2023-02-07T08:22:04.626Z,76.57
2023-02-07T08:24:31.108Z,76.51
2023-02-07T08:26:57.492Z,77.00
2023-02-07T08:29:23.833Z,76.97
2023-02-07T08:31:50.216Z,76.90
2023-02-07T08:34:18.217Z,76.96
2023-02-07T08:36:44.613Z,76.82
2023-02-07T08:39:11.165Z,77.32
2023-02-07T08:41:37.521Z,77.67
2023-02-07T08:44:03.863Z,77.67
2023-02-07T08:46:30.300Z,77.48
2023-02-07T08:48:56.784Z,77.75
2023-02-07T08:51:23.286Z,77.28
2023-02-07T08:53:49.764Z,78.32
2023-02-07T08:56:16.180Z,77.71
2023-02-07T08:58:42.609Z,77.99
2023-02-07T09:01:11.252Z,78.87
2023-02-07T09:03:38.229Z,78.96
2023-02-07T09:06:05.394Z,79.35
2023-02-07T09:08:32.100Z,78.83
2023-02-07T09:10:58.505Z,78.63
2023-02-07T09:13:25.007Z,78.77
2023-02-07T09:15:55.898Z,78.60
2023-02-07T09:18:23.233Z,79.29
2023-02-07T09:20:49.666Z,78.75
2023-02-07T09:23:19.355Z,78.65
2023-02-07T09:25:52.386Z,78.07
2023-02-07T09:28:20.261Z,77.93
2023-02-07T09:30:47.398Z,78.21
2023-02-07T09:33:15.392Z,78.33
2023-02-07T09:35:46.293Z,77.79
2023-02-07T09:38:15.630Z,78.06
2023-02-07T09:40:43.723Z,77.81
2023-02-07T09:43:47.722Z,77.50
2023-02-07T09:46:33.066Z,77.78
2023-02-07T09:49:10.906Z,77.67
2023-02-07T09:51:39.898Z,77.85
2023-02-07T09:54:22.461Z,77.95
2023-02-07T09:56:52.224Z,77.69
2023-02-07T09:59:37.712Z,77.77
2023-02-07T10:02:13.317Z,77.12
2023-02-07T10:04:44.076Z,77.27
2023-02-07T10:07:13.169Z,77.00
2023-02-07T10:09:43.079Z,77.19
2023-02-07T10:12:25.005Z,76.34
2023-02-07T10:15:13.847Z,76.75
2023-02-07T10:18:01.865Z,77.32
2023-02-07T10:20:40.828Z,77.65
2023-02-07T10:23:33.621Z,77.91
2023-02-07T10:25:59.921Z,77.54
2023-02-07T10:28:45.945Z,77.28
2023-02-07T10:31:18.544Z,77.66
2023-02-07T10:33:52.612Z,77.52
2023-02-07T10:36:19.229Z,77.22
2023-02-07T10:38:52.155Z,77.65
2023-02-07T10:41:39.635Z,77.26
2023-02-07T10:44:09.902Z,76.75
2023-02-07T10:46:39.425Z,76.86
2023-02-07T10:49:05.868Z,76.49
2023-02-07T10:51:45.863Z,76.91
2023-02-07T10:54:14.541Z,76.82
2023-02-07T10:56:44.344Z,77.19
2023-02-07T10:59:31.557Z,75.80
2023-02-07T11:01:58.219Z,75.67
2023-02-07T11:04:35.669Z,76.43
2023-02-07T11:07:04.703Z,76.65
2023-02-07T11:09:32.167Z,75.73
2023-02-07T11:11:58.617Z,75.85
2023-02-07T11:14:28.198Z,75.03
2023-02-07T11:16:57.137Z,75.29
2023-02-07T11:19:29.466Z,75.78
2023-02-07T11:22:17.700Z,75.53
2023-02-07T11:24:45.324Z,74.75
2023-02-07T11:27:15.429Z,74.72
2023-02-07T11:29:58.324Z,73.57
2023-02-07T11:32:27.396Z,73.21
2023-02-07T11:35:05.842Z,71.85
2023-02-07T11:37:37.518Z,71.27
2023-02-07T11:40:27.837Z,70.71
2023-02-07T11:43:03.629Z,70.95
2023-02-07T11:45:34.345Z,70.79
2023-02-07T11:48:02.928Z,70.78
2023-02-07T11:50:41.702Z,70.07
2023-02-07T11:53:24.506Z,70.15
2023-02-07T11:55:54.486Z,70.50
2023-02-07T11:58:39.743Z,70.72
2023-02-07T12:01:07.774Z,70.28
2023-02-07T12:03:52.701Z,70.52
2023-02-07T12:06:23.134Z,70.62
2023-02-07T12:08:50.194Z,70.36
2023-02-07T12:11:26.725Z,69.68
2023-02-07T12:14:03.648Z,69.43
2023-02-07T12:16:34.136Z,69.06
2023-02-07T12:19:27.446Z,69.50
2023-02-07T12:22:31.591Z,69.71
2023-02-07T12:25:22.300Z,69.68
2023-02-07T12:27:52.021Z,69.89
2023-02-07T12:30:33.377Z,69.77
2023-02-07T12:33:21.642Z,69.25
2023-02-07T12:36:11.229Z,69.32
2023-02-07T12:39:01.818Z,68.98
2023-02-07T12:41:35.473Z,68.90
2023-02-07T12:44:07.173Z,68.83
2023-02-07T12:46:49.249Z,69.51
2023-02-07T12:49:35.066Z,68.86
2023-02-07T12:52:27.893Z,68.35
2023-02-07T12:55:00.529Z,67.92
2023-02-07T12:57:48.404Z,67.34
2023-02-07T13:00:28.473Z,68.06
2023-02-07T13:03:29.081Z,68.08
2023-02-07T13:06:46.762Z,68.50
2023-02-07T13:09:22.105Z,68.46
2023-02-07T13:12:01.691Z,68.51
2023-02-07T13:15:17.897Z,68.12
2023-02-07T13:17:54.734Z,68.55
2023-02-07T13:20:38.201Z,69.14
2023-02-07T13:23:14.597Z,69.27
2023-02-07T13:25:43.219Z,69.54
2023-02-07T13:28:42.707Z,69.33
2023-02-07T13:31:13.811Z,69.44
2023-02-07T13:33:40.970Z,69.25
2023-02-07T13:36:17.604Z,69.64
2023-02-07T13:38:56.011Z,69.24
2023-02-07T13:41:39.560Z,69.34
2023-02-07T13:44:20.251Z,69.26
2023-02-07T13:46:56.501Z,69.38
2023-02-07T13:49:38.911Z,69.23
2023-02-07T13:52:14.958Z,68.90
2023-02-07T13:54:50.699Z,69.14
2023-02-07T13:57:55.996Z,68.81
2023-02-07T14:00:26.191Z,68.36
2023-02-07T14:02:56.586Z,68.18
2023-02-07T14:05:27.924Z,67.92
2023-02-07T14:08:01.696Z,68.38
2023-02-07T14:10:42.813Z,68.32
2023-02-07T14:13:20.513Z,68.51
2023-02-07T14:15:46.928Z,68.25
2023-02-07T14:18:38.611Z,67.42
2023-02-07T14:21:20.800Z,67.54
2023-02-07T14:24:32.313Z,67.69
2023-02-07T14:27:01.623Z,68.04
2023-02-07T14:29:30.751Z,67.62
2023-02-07T14:32:02.613Z,67.02
2023-02-07T14:34:31.724Z,67.24
2023-02-07T14:37:00.277Z,67.60
2023-02-07T14:39:33.436Z,67.15
2023-02-07T14:42:15.835Z,67.07
2023-02-07T14:44:45.214Z,67.41
2023-02-07T14:47:21.729Z,66.66
2023-02-07T14:49:51.420Z,66.07
2023-02-07T14:52:31.138Z,66.14
2023-02-07T14:55:02.076Z,66.41
2023-02-07T14:57:54.184Z,66.04
2023-02-07T15:00:47.190Z,66.58
2023-02-07T15:03:17.648Z,66.66
2023-02-07T15:06:04.428Z,66.17
2023-02-07T15:08:34.770Z,66.07
2023-02-07T15:11:04.649Z,66.25
2023-02-07T15:13:31.020Z,66.04
2023-02-07T15:16:04.017Z,66.14
2023-02-07T15:18:34.816Z,65.89
2023-02-07T15:21:01.769Z,65.75
2023-02-07T15:23:30.743Z,65.98
2023-02-07T15:26:01.654Z,65.95
2023-02-07T15:28:30.391Z,65.83
2023-02-07T15:31:02.855Z,65.44
2023-02-07T15:33:41.004Z,65.13
2023-02-07T15:36:31.419Z,65.50
2023-02-07T15:38:59.612Z,65.46
2023-02-07T15:41:27.386Z,65.28
2023-02-07T15:44:00.572Z,65.61
2023-02-07T15:46:42.612Z,65.51
2023-02-07T15:49:09.065Z,65.91
2023-02-07T15:51:41.195Z,65.33
2023-02-07T15:54:15.594Z,64.79
2023-02-07T15:56:45.686Z,65.36
2023-02-07T15:59:19.128Z,65.37
2023-02-07T16:01:55.463Z,65.51
2023-02-07T16:04:26.779Z,66.14
2023-02-07T16:07:12.233Z,66.21
2023-02-07T16:09:40.771Z,66.45
2023-02-07T16:12:22.919Z,66.54
2023-02-07T16:14:49.585Z,66.47
2023-02-07T16:17:24.241Z,66.74
2023-02-07T16:19:50.592Z,66.38
2023-02-07T16:22:21.345Z,66.41
2023-02-07T16:24:50.884Z,66.33
2023-02-07T16:27:20.535Z,66.59
2023-02-07T16:29:47.924Z,67.07
2023-02-07T16:32:14.716Z,66.97
2023-02-07T16:34:53.794Z,67.91
2023-02-07T16:37:24.098Z,67.96
2023-02-07T16:39:50.491Z,67.86
2023-02-07T16:42:19.502Z,68.19
2023-02-07T16:44:46.931Z,68.33
2023-02-07T16:47:13.733Z,68.15
2023-02-07T16:49:43.760Z,68.18
2023-02-07T16:52:10.321Z,68.64
2023-02-07T16:54:36.745Z,69.08
2023-02-07T16:57:04.053Z,69.25
2023-02-07T16:59:30.711Z,69.43
2023-02-07T17:01:57.214Z,69.73
2023-02-07T17:04:23.659Z,69.87
2023-02-07T17:06:50.375Z,69.50
2023-02-07T17:09:20.306Z,69.89
2023-02-07T17:11:47.045Z,70.36
2023-02-07T17:14:13.908Z,69.94
2023-02-07T17:16:40.979Z,70.26
2023-02-07T17:19:18.305Z,70.29
2023-02-07T17:21:46.379Z,70.48
2023-02-07T17:24:13.044Z,70.31
2023-02-07T17:26:43.708Z,70.48
2023-02-07T17:29:12.796Z,70.43
2023-02-07T17:31:39.657Z,70.96
2023-02-07T17:34:06.563Z,71.01
2023-02-07T17:36:34.314Z,71.75
2023-02-07T17:39:01.107Z,71.91
2023-02-07T17:41:27.465Z,72.14
2023-02-07T17:43:54.433Z,72.12
2023-02-07T17:46:24.240Z,72.02
2023-02-07T17:48:51.841Z,72.19
2023-02-07T17:51:20.829Z,72.16
2023-02-07T17:53:47.331Z,72.07
2023-02-07T17:56:30.913Z,71.62
2023-02-07T17:59:00.226Z,71.95
2023-02-07T18:01:26.655Z,71.83
2023-02-07T18:03:54.828Z,71.97
2023-02-07T18:06:26.970Z,72.25
2023-02-07T18:08:56.447Z,72.26
2023-02-07T18:11:23.949Z,72.05
2023-02-07T18:13:50.365Z,71.93
2023-02-07T18:16:22.807Z,72.49
2023-02-07T18:18:51.290Z,72.01
2023-02-07T18:21:18.037Z,72.31
2023-02-07T18:23:44.822Z,72.70
2023-02-07T18:26:14.877Z,72.57
2023-02-07T18:28:43.018Z,72.68
2023-02-07T18:31:11.954Z,72.83
2023-02-07T18:33:38.421Z,72.55
2023-02-07T18:36:05.386Z,72.71
2023-02-07T18:38:31.830Z,72.41
2023-02-07T18:40:58.168Z,72.21
2023-02-07T18:43:24.506Z,72.83
2023-02-07T18:45:50.896Z,72.49
2023-02-07T18:48:17.336Z,72.65
2023-02-07T18:50:44.581Z,72.85
2023-02-07T18:53:12.389Z,72.66
2023-02-07T18:55:38.929Z,72.73
2023-02-07T18:58:05.412Z,72.85
2023-02-07T19:00:31.855Z,72.88
2023-02-07T19:02:58.255Z,72.66
2023-02-07T19:05:24.598Z,72.87
2023-02-07T19:07:50.918Z,72.81
2023-02-07T19:10:17.401Z,73.19
2023-02-07T19:12:43.730Z,72.98
2023-02-07T19:15:10.287Z,73.31
2023-02-07T19:17:36.691Z,72.87
2023-02-07T19:20:03.168Z,72.69
2023-02-07T19:22:35.240Z,73.44
2023-02-07T19:25:02.723Z,72.70
2023-02-07T19:27:29.062Z,73.32
2023-02-07T19:29:55.386Z,73.43
2023-02-07T19:32:21.739Z,72.66
2023-02-07T19:34:49.159Z,73.29
2023-02-07T19:37:16.532Z,73.41
2023-02-07T19:39:44.768Z,73.29
2023-02-07T19:42:11.087Z,73.73
2023-02-07T19:44:37.472Z,73.48
2023-02-07T19:47:05.111Z,73.96
2023-02-07T19:49:31.627Z,73.84
2023-02-07T19:51:57.964Z,73.38
2023-02-07T19:54:24.300Z,73.56
2023-02-07T19:56:50.786Z,73.96
2023-02-07T19:59:18.607Z,73.54
2023-02-07T20:01:45.033Z,73.76
2023-02-07T20:04:11.434Z,73.65
2023-02-07T20:06:37.858Z,73.24
2023-02-07T20:09:05.760Z,72.91
2023-02-07T20:11:32.787Z,73.64
2023-02-07T20:14:02.963Z,74.13
2023-02-07T20:16:33.524Z,73.79
2023-02-07T20:19:00.693Z,74.10
2023-02-07T20:21:28.886Z,74.10
2023-02-07T20:23:56.996Z,74.28
2023-02-07T20:26:26.354Z,74.68
2023-02-07T20:28:53.572Z,74.53
2023-02-07T20:31:23.876Z,74.28
2023-02-07T20:33:50.589Z,73.84
2023-02-07T20:36:18.361Z,74.32
2023-02-07T20:38:46.353Z,74.00
2023-02-07T20:41:28.662Z,73.89
2023-02-07T20:44:05.252Z,73.01
2023-02-07T20:46:34.046Z,73.35
2023-02-07T20:49:03.637Z,73.03
2023-02-07T20:51:30.425Z,73.42
2023-02-07T20:53:59.572Z,72.94
2023-02-07T20:56:26.927Z,73.57
2023-02-07T20:58:54.395Z,73.12
2023-02-07T21:01:26.328Z,72.98
2023-02-07T21:03:55.049Z,73.28
2023-02-07T21:06:24.875Z,73.34
2023-02-07T21:08:55.213Z,73.32
2023-02-07T21:11:21.794Z,73.19
2023-02-07T21:13:53.854Z,73.48
2023-02-07T21:16:20.856Z,73.40
2023-02-07T21:18:48.043Z,74.11
2023-02-07T21:21:15.103Z,73.68
2023-02-07T21:23:41.730Z,74.57
2023-02-07T21:26:10.900Z,73.98
2023-02-07T21:28:37.429Z,74.21
2023-02-07T21:31:10.042Z,74.06
2023-02-07T21:33:36.515Z,73.85
2023-02-07T21:36:15.475Z,74.48
2023-02-07T21:38:45.893Z,73.82
2023-02-07T21:41:14.457Z,74.19
2023-02-07T21:43:42.005Z,73.95
2023-02-07T21:46:12.913Z,74.57
2023-02-07T21:48:41.713Z,73.72
2023-02-07T21:51:11.331Z,73.99
2023-02-07T21:53:38.374Z,73.86
2023-02-07T21:56:11.277Z,74.32
2023-02-07T21:58:37.676Z,74.14
2023-02-07T22:01:06.228Z,74.19
2023-02-07T22:03:32.653Z,73.63
2023-02-07T22:05:59.010Z,73.87
2023-02-07T22:08:25.378Z,73.41
2023-02-07T22:10:51.832Z,73.75
2023-02-07T22:13:18.267Z,74.15
2023-02-07T22:15:51.293Z,73.63
2023-02-07T22:18:17.685Z,73.75
2023-02-07T22:20:44.179Z,74.13
2023-02-07T22:23:10.518Z,74.16
2023-02-07T22:25:41.285Z,74.20
2023-02-07T22:28:08.385Z,73.98
2023-02-07T22:30:37.123Z,74.09
2023-02-07T22:33:05.593Z,73.64
2023-02-07T22:35:36.819Z,73.92
2023-02-07T22:38:04.158Z,74.14
2023-02-07T22:40:32.606Z,73.83
2023-02-07T22:42:59.129Z,74.14
2023-02-07T22:45:25.487Z,73.43
2023-02-07T22:47:51.873Z,74.13
2023-02-07T22:50:18.536Z,73.67
2023-02-07T22:52:45.568Z,73.34
2023-02-07T22:55:12.439Z,73.41
2023-02-07T22:57:38.813Z,73.53
2023-02-07T23:00:10.243Z,74.32
2023-02-07T23:02:36.729Z,73.50
2023-02-07T23:05:04.160Z,73.91
2023-02-07T23:07:30.592Z,74.28
2023-02-07T23:09:57.134Z,73.89
2023-02-07T23:12:23.524Z,73.72
2023-02-07T23:14:49.886Z,73.93
2023-02-07T23:17:16.232Z,73.19
2023-02-07T23:19:42.674Z,73.69
2023-02-07T23:22:09.052Z,74.06
2023-02-07T23:24:35.441Z,74.16
2023-02-07T23:27:01.828Z,74.26
2023-02-07T23:29:28.285Z,74.21
2023-02-07T23:31:55.059Z,74.03
2023-02-07T23:34:21.551Z,74.30
2023-02-07T23:36:48.989Z,73.65
2023-02-07T23:39:15.780Z,73.47
2023-02-07T23:41:42.248Z,73.87
2023-02-07T23:44:08.658Z,73.66
2023-02-07T23:46:35.487Z,73.79
2023-02-07T23:49:01.976Z,74.20
2023-02-07T23:51:28.553Z,74.19
2023-02-07T23:53:54.988Z,74.34
2023-02-07T23:56:23.589Z,74.36
2023-02-07T23:58:51.555Z,74.42
